createdAt,value
2023-03-27T00:00:52.390Z,6.81
2023-03-27T00:01:51.721Z,6.94
2023-03-27T00:02:51.862Z,6.73
2023-03-27T00:03:51.850Z,6.58
2023-03-27T00:04:51.670Z,6.62
2023-03-27T00:05:51.696Z,6.26
2023-03-27T00:06:51.690Z,5.92
2023-03-27T00:07:51.668Z,6.14
2023-03-27T00:08:51.667Z,6.21
2023-03-27T00:09:51.645Z,6.04
2023-03-27T00:10:51.635Z,6.13
2023-03-27T00:11:51.667Z,6.56
2023-03-27T00:12:51.624Z,6.11
2023-03-27T00:13:51.634Z,5.88
2023-03-27T00:14:51.649Z,5.93
2023-03-27T00:15:51.612Z,6.07
2023-03-27T00:16:51.630Z,6.38
2023-03-27T00:17:51.624Z,6.47
2023-03-27T00:18:51.680Z,6.48
2023-03-27T00:19:51.573Z,6.28
2023-03-27T00:20:51.594Z,6.19
2023-03-27T00:21:51.580Z,5.82
2023-03-27T00:22:51.577Z,6.14
2023-03-27T00:23:51.600Z,6.09
2023-03-27T00:24:52.555Z,6.04
2023-03-27T00:25:51.528Z,5.82
2023-03-27T00:26:51.601Z,6.06
2023-03-27T00:27:51.524Z,5.75
2023-03-27T00:28:51.528Z,5.85
2023-03-27T00:29:51.521Z,6.04
2023-03-27T00:30:51.568Z,5.57
2023-03-27T00:31:51.542Z,5.81
2023-03-27T00:32:51.564Z,5.83
2023-03-27T00:33:51.493Z,5.91
2023-03-27T00:34:51.547Z,5.75
2023-03-27T00:35:51.566Z,5.60
2023-03-27T00:36:51.498Z,5.83
2023-03-27T00:37:51.553Z,5.75
2023-03-27T00:38:51.481Z,5.82
2023-03-27T00:39:51.592Z,5.96
2023-03-27T00:40:51.477Z,5.86
2023-03-27T00:41:51.437Z,5.55
2023-03-27T00:42:51.441Z,5.85
2023-03-27T00:43:51.426Z,5.89
2023-03-27T00:44:51.435Z,5.98
2023-03-27T00:45:51.501Z,5.86
2023-03-27T00:46:51.420Z,6.13
2023-03-27T00:47:51.478Z,6.28
2023-03-27T00:48:51.465Z,6.04
2023-03-27T00:49:51.432Z,6.29
2023-03-27T00:50:51.383Z,6.41
2023-03-27T00:51:51.388Z,6.46
2023-03-27T00:52:51.376Z,6.59
2023-03-27T00:53:51.368Z,6.65
2023-03-27T00:54:51.430Z,6.35
2023-03-27T00:55:51.401Z,6.47
2023-03-27T00:56:51.368Z,6.38
2023-03-27T00:57:51.336Z,6.48
2023-03-27T00:58:51.386Z,6.62
2023-03-27T00:59:51.368Z,6.54
2023-03-27T01:00:51.326Z,6.56
2023-03-27T01:01:51.389Z,6.69
2023-03-27T01:02:51.390Z,6.66
2023-03-27T01:03:51.469Z,6.63
2023-03-27T01:04:51.321Z,6.69
2023-03-27T01:05:51.318Z,6.66
2023-03-27T01:06:51.290Z,6.53
2023-03-27T01:08:00.079Z,6.46
2023-03-27T01:08:52.320Z,6.22
2023-03-27T01:09:51.272Z,6.19
2023-03-27T01:10:51.280Z,6.40
2023-03-27T01:11:51.264Z,6.21
2023-03-27T01:12:51.229Z,6.18
2023-03-27T01:13:51.256Z,6.09
2023-03-27T01:14:51.272Z,6.19
2023-03-27T01:15:51.284Z,6.35
2023-03-27T01:16:51.229Z,6.38
2023-03-27T01:17:51.234Z,6.29
2023-03-27T01:18:51.231Z,6.16
2023-03-27T01:19:51.183Z,6.36
2023-03-27T01:20:51.906Z,6.61
2023-03-27T01:21:51.185Z,6.38
2023-03-27T01:22:51.180Z,5.85
2023-03-27T01:24:00.253Z,5.63
2023-03-27T01:24:52.199Z,5.82
2023-03-27T01:25:51.154Z,5.95
2023-03-27T01:26:51.179Z,5.83
2023-03-27T01:27:51.166Z,5.93
2023-03-27T01:28:51.177Z,5.82
2023-03-27T01:29:51.133Z,5.86
2023-03-27T01:30:51.122Z,5.93
2023-03-27T01:31:51.218Z,6.01
2023-03-27T01:32:51.221Z,5.78
2023-03-27T01:33:51.125Z,5.91
2023-03-27T01:35:01.792Z,6.13
2023-03-27T01:35:52.158Z,6.01
2023-03-27T01:36:51.100Z,6.13
2023-03-27T01:37:51.088Z,5.57
2023-03-27T01:38:51.092Z,5.57
2023-03-27T01:39:51.050Z,5.53
2023-03-27T01:40:51.065Z,5.64
2023-03-27T01:41:51.079Z,5.92
2023-03-27T01:42:51.048Z,6.07
2023-03-27T01:43:51.085Z,6.00
2023-03-27T01:44:51.112Z,5.85
2023-03-27T01:45:51.104Z,5.86
2023-03-27T01:46:51.093Z,6.14
2023-03-27T01:47:51.072Z,6.13
2023-03-27T01:48:51.070Z,6.10
2023-03-27T01:49:51.002Z,5.68
2023-03-27T01:50:51.006Z,5.52
2023-03-27T01:51:51.010Z,5.52
2023-03-27T01:52:50.980Z,5.50
2023-03-27T01:53:50.957Z,5.53
2023-03-27T01:54:50.955Z,5.35
2023-03-27T01:55:51.000Z,5.64
2023-03-27T01:56:51.015Z,5.75
2023-03-27T01:57:50.957Z,5.50
2023-03-27T01:58:51.034Z,5.55
2023-03-27T01:59:50.938Z,5.75
2023-03-27T02:00:53.051Z,5.83
2023-03-27T02:01:50.953Z,5.86
2023-03-27T02:02:50.906Z,5.89
2023-03-27T02:03:50.921Z,5.83
2023-03-27T02:04:50.962Z,5.86
2023-03-27T02:05:50.914Z,6.03
2023-03-27T02:06:50.969Z,5.70
2023-03-27T02:07:50.916Z,5.56
2023-03-27T02:08:50.874Z,5.46
2023-03-27T02:09:50.871Z,5.31
2023-03-27T02:10:50.879Z,5.35
2023-03-27T02:11:50.879Z,5.34
2023-03-27T02:12:50.887Z,5.09
2023-03-27T02:13:51.814Z,5.23
2023-03-27T02:14:50.850Z,5.41
2023-03-27T02:15:50.914Z,5.41
2023-03-27T02:16:50.813Z,5.56
2023-03-27T02:17:50.922Z,5.77
2023-03-27T02:18:50.883Z,5.81
2023-03-27T02:19:50.865Z,5.82
2023-03-27T02:20:50.813Z,5.68
2023-03-27T02:21:50.790Z,5.32
2023-03-27T02:22:50.810Z,5.50
2023-03-27T02:23:50.810Z,5.49
2023-03-27T02:24:50.765Z,5.41
2023-03-27T02:25:50.826Z,5.50
2023-03-27T02:26:50.823Z,5.50
2023-03-27T02:27:50.764Z,5.57
2023-03-27T02:28:50.805Z,5.50
2023-03-27T02:29:50.749Z,5.52
2023-03-27T02:31:06.997Z,5.43
2023-03-27T02:31:51.781Z,5.45
2023-03-27T02:32:50.751Z,5.56
2023-03-27T02:33:50.742Z,5.57
2023-03-27T02:34:50.717Z,5.68
2023-03-27T02:35:50.795Z,5.71
2023-03-27T02:36:50.710Z,5.68
2023-03-27T02:37:50.718Z,5.82
2023-03-27T02:38:50.716Z,5.86
2023-03-27T02:39:50.718Z,5.71
2023-03-27T02:40:50.689Z,5.71
2023-03-27T02:41:50.694Z,5.71
2023-03-27T02:42:50.667Z,5.53
2023-03-27T02:43:50.696Z,5.64
2023-03-27T02:44:50.662Z,5.63
2023-03-27T02:45:50.725Z,5.53
2023-03-27T02:46:50.664Z,5.43
2023-03-27T02:47:50.695Z,5.50
2023-03-27T02:48:50.619Z,5.48
2023-03-27T02:49:50.615Z,5.46
2023-03-27T02:50:50.623Z,5.37
2023-03-27T02:51:50.657Z,5.34
2023-03-27T02:52:50.619Z,5.19
2023-03-27T02:53:50.609Z,5.25
2023-03-27T02:54:50.617Z,5.30
2023-03-27T02:55:50.605Z,5.16
2023-03-27T02:56:50.582Z,5.22
2023-03-27T02:57:52.063Z,5.22
2023-03-27T02:58:50.669Z,5.30
2023-03-27T02:59:50.577Z,5.35
2023-03-27T03:00:51.360Z,5.37
2023-03-27T03:01:50.585Z,5.30
2023-03-27T03:02:50.616Z,5.37
2023-03-27T03:03:50.582Z,5.30
2023-03-27T03:04:50.514Z,5.30
2023-03-27T03:05:50.534Z,5.23
2023-03-27T03:06:50.525Z,5.20
2023-03-27T03:07:50.545Z,4.73
2023-03-27T03:08:50.525Z,4.77
2023-03-27T03:09:50.518Z,4.91
2023-03-27T03:10:50.526Z,5.01
2023-03-27T03:11:50.485Z,4.73
2023-03-27T03:12:50.520Z,4.44
2023-03-27T03:13:50.493Z,4.61
2023-03-27T03:14:50.477Z,4.62
2023-03-27T03:15:50.696Z,4.61
2023-03-27T03:16:50.497Z,4.73
2023-03-27T03:17:50.479Z,4.75
2023-03-27T03:18:51.433Z,4.88
2023-03-27T03:19:50.447Z,4.92
2023-03-27T03:20:50.453Z,4.58
2023-03-27T03:21:50.478Z,4.39
2023-03-27T03:22:50.467Z,4.54
2023-03-27T03:23:58.196Z,4.44
2023-03-27T03:24:51.433Z,4.51
2023-03-27T03:25:50.409Z,4.67
2023-03-27T03:26:50.440Z,4.57
2023-03-27T03:27:50.405Z,4.61
2023-03-27T03:29:00.111Z,4.70
2023-03-27T03:29:51.377Z,4.84
2023-03-27T03:30:50.551Z,4.77
2023-03-27T03:31:50.377Z,4.76
2023-03-27T03:32:50.459Z,4.72
2023-03-27T03:33:50.343Z,4.98
2023-03-27T03:34:50.338Z,4.80
2023-03-27T03:35:51.433Z,4.55
2023-03-27T03:36:50.430Z,4.55
2023-03-27T03:37:51.064Z,4.79
2023-03-27T03:38:51.373Z,4.72
2023-03-27T03:39:50.320Z,4.89
2023-03-27T03:41:11.439Z,4.88
2023-03-27T03:41:50.338Z,4.95
2023-03-27T03:42:50.390Z,4.95
2023-03-27T03:43:50.345Z,4.95
2023-03-27T03:44:50.305Z,5.01
2023-03-27T03:45:50.327Z,4.83
2023-03-27T03:46:50.346Z,5.01
2023-03-27T03:47:50.401Z,4.77
2023-03-27T03:48:50.324Z,4.96
2023-03-27T03:49:50.353Z,5.09
2023-03-27T03:50:50.287Z,4.94
2023-03-27T03:52:04.375Z,4.80
2023-03-27T03:52:51.261Z,5.01
2023-03-27T03:53:50.277Z,4.91
2023-03-27T03:54:50.273Z,5.09
2023-03-27T03:55:50.251Z,5.04
2023-03-27T03:56:50.400Z,5.12
2023-03-27T03:57:50.333Z,5.09
2023-03-27T03:58:50.200Z,4.94
2023-03-27T03:59:50.237Z,4.79
2023-03-27T04:00:51.202Z,4.72
2023-03-27T04:01:50.260Z,4.73
2023-03-27T04:02:50.299Z,4.67
2023-03-27T04:03:50.303Z,4.72
2023-03-27T04:04:50.190Z,4.72
2023-03-27T04:05:50.170Z,4.69
2023-03-27T04:06:50.169Z,4.64
2023-03-27T04:07:50.155Z,4.58
2023-03-27T04:08:50.170Z,4.55
2023-03-27T04:09:50.175Z,4.57
2023-03-27T04:10:50.158Z,4.58
2023-03-27T04:11:50.111Z,4.69
2023-03-27T04:12:50.190Z,4.62
2023-03-27T04:13:50.401Z,4.50
2023-03-27T04:14:50.307Z,4.36
2023-03-27T04:15:50.328Z,4.29
2023-03-27T04:16:50.471Z,4.19
2023-03-27T04:17:50.423Z,4.16
2023-03-27T04:18:50.521Z,4.04
2023-03-27T04:19:50.331Z,4.04
2023-03-27T04:20:51.033Z,3.94
2023-03-27T04:21:50.147Z,4.07
2023-03-27T04:22:51.347Z,4.19
2023-03-27T04:23:50.171Z,4.24
2023-03-27T04:24:50.203Z,4.32
2023-03-27T04:25:50.213Z,4.39
2023-03-27T04:26:50.286Z,4.32
2023-03-27T04:27:50.169Z,4.32
2023-03-27T04:28:50.169Z,4.42
2023-03-27T04:29:50.146Z,4.36
2023-03-27T04:30:51.324Z,4.36
2023-03-27T04:31:50.510Z,4.33
2023-03-27T04:32:50.167Z,4.43
2023-03-27T04:33:50.556Z,4.51
2023-03-27T04:34:50.269Z,4.59
2023-03-27T04:36:06.581Z,4.44
2023-03-27T04:36:51.617Z,4.51
2023-03-27T04:37:50.091Z,4.50
2023-03-27T04:38:50.205Z,4.61
2023-03-27T04:39:51.055Z,4.72
2023-03-27T04:40:50.197Z,4.57
2023-03-27T04:41:50.077Z,4.36
2023-03-27T04:42:50.097Z,4.47
2023-03-27T04:43:50.219Z,4.16
2023-03-27T04:44:50.007Z,4.32
2023-03-27T04:45:49.938Z,4.40
2023-03-27T04:46:49.934Z,4.58
2023-03-27T04:47:50.003Z,4.39
2023-03-27T04:48:49.895Z,4.39
2023-03-27T04:49:49.906Z,4.40
2023-03-27T04:50:49.908Z,4.34
2023-03-27T04:51:49.946Z,4.25
2023-03-27T04:52:50.718Z,4.34
2023-03-27T04:53:50.929Z,4.40
2023-03-27T04:54:49.960Z,4.44
2023-03-27T04:55:49.843Z,4.47
2023-03-27T04:56:49.889Z,4.52
2023-03-27T04:57:49.838Z,4.57
2023-03-27T04:58:49.900Z,4.57
2023-03-27T04:59:50.870Z,4.37
2023-03-27T05:00:49.938Z,4.37
2023-03-27T05:01:50.033Z,4.14
2023-03-27T05:02:50.410Z,4.04
2023-03-27T05:03:49.831Z,4.15
2023-03-27T05:04:49.899Z,3.94
2023-03-27T05:05:49.818Z,3.96
2023-03-27T05:06:49.793Z,3.88
2023-03-27T05:07:49.796Z,4.03
2023-03-27T05:08:50.805Z,4.04
2023-03-27T05:09:49.844Z,4.26
2023-03-27T05:10:49.813Z,4.28
2023-03-27T05:11:49.837Z,4.34
2023-03-27T05:12:49.773Z,4.42
2023-03-27T05:13:49.754Z,4.46
2023-03-27T05:14:49.761Z,4.55
2023-03-27T05:15:49.764Z,4.62
2023-03-27T05:16:49.778Z,4.55
2023-03-27T05:17:49.764Z,4.75
2023-03-27T05:18:49.779Z,4.77
2023-03-27T05:19:49.711Z,4.77
2023-03-27T05:20:49.724Z,4.86
2023-03-27T05:21:49.692Z,4.65
2023-03-27T05:22:49.737Z,4.67
2023-03-27T05:23:49.669Z,4.54
2023-03-27T05:24:49.679Z,4.42
2023-03-27T05:26:00.182Z,4.42
2023-03-27T05:26:50.680Z,4.36
2023-03-27T05:27:49.680Z,4.44
2023-03-27T05:28:49.669Z,4.69
2023-03-27T05:29:49.646Z,4.69
2023-03-27T05:30:49.674Z,4.47
2023-03-27T05:31:49.634Z,4.29
2023-03-27T05:32:49.724Z,4.34
2023-03-27T05:33:49.649Z,4.52
2023-03-27T05:34:49.638Z,4.55
2023-03-27T05:35:49.635Z,4.67
2023-03-27T05:36:49.619Z,4.69
2023-03-27T05:37:49.649Z,4.72
2023-03-27T05:38:49.645Z,4.72
2023-03-27T05:39:49.588Z,4.65
2023-03-27T05:40:49.586Z,4.69
2023-03-27T05:41:49.599Z,4.65
2023-03-27T05:42:49.650Z,4.50
2023-03-27T05:43:51.132Z,4.46
2023-03-27T05:44:50.576Z,4.55
2023-03-27T05:45:49.657Z,4.51
2023-03-27T05:46:49.587Z,4.72
2023-03-27T05:47:49.634Z,4.43
2023-03-27T05:48:49.553Z,4.58
2023-03-27T05:49:49.516Z,4.75
2023-03-27T05:50:49.535Z,4.64
2023-03-27T05:51:49.560Z,4.67
2023-03-27T05:52:49.548Z,4.65
2023-03-27T05:53:49.548Z,4.72
2023-03-27T05:54:49.488Z,4.55
2023-03-27T05:55:49.518Z,4.57
2023-03-27T05:56:50.508Z,4.47
2023-03-27T05:57:49.496Z,4.57
2023-03-27T05:58:49.480Z,4.54
2023-03-27T05:59:49.517Z,4.58
2023-03-27T06:00:49.474Z,4.52
2023-03-27T06:01:49.451Z,4.58
2023-03-27T06:02:49.580Z,4.65
2023-03-27T06:03:49.557Z,4.79
2023-03-27T06:04:49.437Z,4.88
2023-03-27T06:05:49.432Z,4.91
2023-03-27T06:06:49.430Z,4.92
2023-03-27T06:07:49.431Z,4.86
2023-03-27T06:08:49.419Z,5.02
2023-03-27T06:09:49.420Z,5.02
2023-03-27T06:10:49.461Z,5.07
2023-03-27T06:11:49.434Z,5.01
2023-03-27T06:12:49.396Z,5.02
2023-03-27T06:13:49.436Z,4.92
2023-03-27T06:14:49.355Z,4.92
2023-03-27T06:15:49.405Z,4.89
2023-03-27T06:16:49.392Z,5.02
2023-03-27T06:17:49.427Z,5.10
2023-03-27T06:18:49.375Z,5.20
2023-03-27T06:19:49.318Z,5.16
2023-03-27T06:20:49.372Z,5.19
2023-03-27T06:21:49.330Z,5.20
2023-03-27T06:22:49.348Z,5.32
2023-03-27T06:23:49.353Z,5.32
2023-03-27T06:24:49.402Z,5.23
2023-03-27T06:25:49.349Z,5.12
2023-03-27T06:26:49.317Z,5.02
2023-03-27T06:27:49.298Z,4.91
2023-03-27T06:28:49.338Z,5.04
2023-03-27T06:29:49.293Z,4.99
2023-03-27T06:30:49.288Z,5.01
2023-03-27T06:31:49.285Z,4.86
2023-03-27T06:32:49.308Z,4.98
2023-03-27T06:33:49.282Z,5.16
2023-03-27T06:34:49.300Z,5.22
2023-03-27T06:35:53.151Z,5.23
2023-03-27T06:36:49.220Z,5.35
2023-03-27T06:37:50.836Z,5.45
2023-03-27T06:38:50.231Z,5.37
2023-03-27T06:39:49.237Z,5.48
2023-03-27T06:40:49.244Z,5.52
2023-03-27T06:41:49.297Z,5.64
2023-03-27T06:42:49.232Z,5.56
2023-03-27T06:43:49.229Z,5.09
2023-03-27T06:44:49.884Z,5.22
2023-03-27T06:45:49.224Z,5.17
2023-03-27T06:46:49.266Z,5.22
2023-03-27T06:47:54.383Z,5.28
2023-03-27T06:48:51.273Z,5.38
2023-03-27T06:49:49.237Z,5.45
2023-03-27T06:50:49.175Z,5.50
2023-03-27T06:51:49.150Z,5.46
2023-03-27T06:52:49.146Z,5.38
2023-03-27T06:53:49.131Z,5.40
2023-03-27T06:54:49.127Z,5.57
2023-03-27T06:55:49.113Z,5.64
2023-03-27T06:56:49.142Z,5.68
2023-03-27T06:57:49.140Z,5.49
2023-03-27T06:58:49.097Z,5.59
2023-03-27T06:59:49.073Z,5.74
2023-03-27T07:00:49.386Z,5.85
2023-03-27T07:01:49.181Z,5.83
2023-03-27T07:02:49.274Z,5.93
2023-03-27T07:03:49.077Z,6.07
2023-03-27T07:05:01.644Z,6.10
2023-03-27T07:05:51.949Z,6.26
2023-03-27T07:06:49.150Z,6.11
2023-03-27T07:07:50.079Z,6.26
2023-03-27T07:08:49.886Z,6.18
2023-03-27T07:09:49.078Z,6.21
2023-03-27T07:10:59.954Z,6.29
2023-03-27T07:11:51.045Z,6.30
2023-03-27T07:12:49.108Z,6.53
2023-03-27T07:13:49.372Z,6.22
2023-03-27T07:14:50.184Z,6.10
2023-03-27T07:15:49.068Z,6.30
2023-03-27T07:16:49.244Z,6.38
2023-03-27T07:17:49.524Z,6.63
2023-03-27T07:18:49.150Z,6.66
2023-03-27T07:19:49.001Z,6.81
2023-03-27T07:20:49.025Z,6.79
2023-03-27T07:21:48.939Z,6.81
2023-03-27T07:22:48.996Z,6.97
2023-03-27T07:23:49.189Z,7.15
2023-03-27T07:24:49.229Z,7.16
2023-03-27T07:25:49.203Z,6.98
2023-03-27T07:26:48.962Z,6.94
2023-03-27T07:27:48.986Z,6.87
2023-03-27T07:28:48.985Z,6.80
2023-03-27T07:29:49.081Z,6.63
2023-03-27T07:30:49.931Z,6.59
2023-03-27T07:31:56.232Z,6.43
2023-03-27T07:32:51.021Z,6.61
2023-03-27T07:33:49.973Z,6.56
2023-03-27T07:34:48.886Z,6.51
2023-03-27T07:35:48.953Z,6.54
2023-03-27T07:36:48.853Z,6.54
2023-03-27T07:37:48.872Z,6.65
2023-03-27T07:38:48.835Z,6.87
2023-03-27T07:39:48.834Z,7.24
2023-03-27T07:40:48.863Z,7.47
2023-03-27T07:41:48.853Z,7.50
2023-03-27T07:42:48.825Z,7.38
2023-03-27T07:43:48.857Z,7.20
2023-03-27T07:44:48.863Z,7.31
2023-03-27T07:45:48.864Z,7.87
2023-03-27T07:46:48.978Z,7.92
2023-03-27T07:47:48.901Z,8.51
2023-03-27T07:48:48.779Z,8.73
2023-03-27T07:49:49.442Z,9.20
2023-03-27T07:50:48.772Z,8.84
2023-03-27T07:51:48.818Z,9.58
2023-03-27T07:52:48.764Z,9.67
2023-03-27T07:53:48.770Z,9.48
2023-03-27T07:54:48.739Z,9.88
2023-03-27T07:55:48.797Z,10.33
2023-03-27T07:56:48.945Z,12.19
2023-03-27T07:58:00.825Z,13.52
2023-03-27T07:58:50.743Z,14.44
2023-03-27T07:59:48.780Z,14.91
2023-03-27T08:00:48.784Z,13.88
2023-03-27T08:01:48.724Z,14.14
2023-03-27T08:02:48.921Z,14.39
2023-03-27T08:03:48.947Z,14.61
2023-03-27T08:04:48.846Z,14.69
2023-03-27T08:05:48.671Z,15.86
2023-03-27T08:06:48.710Z,16.59
2023-03-27T08:07:48.685Z,16.55
2023-03-27T08:08:48.719Z,15.84
2023-03-27T08:09:48.680Z,15.84
2023-03-27T08:10:48.643Z,14.78
2023-03-27T08:11:48.640Z,14.32
2023-03-27T08:12:48.646Z,13.73
2023-03-27T08:13:48.669Z,13.63
2023-03-27T08:14:48.594Z,12.79
2023-03-27T08:15:48.673Z,13.02
2023-03-27T08:16:48.651Z,14.42
2023-03-27T08:17:48.611Z,15.43
2023-03-27T08:18:48.632Z,15.68
2023-03-27T08:19:48.594Z,16.35
2023-03-27T08:20:48.626Z,17.20
2023-03-27T08:21:48.590Z,17.33
2023-03-27T08:22:48.594Z,16.81
2023-03-27T08:23:48.571Z,16.75
2023-03-27T08:24:48.562Z,16.71
2023-03-27T08:25:48.655Z,16.59
2023-03-27T08:26:48.554Z,16.44
2023-03-27T08:27:48.534Z,17.54
2023-03-27T08:28:48.578Z,16.52
2023-03-27T08:29:48.749Z,16.55
2023-03-27T08:30:48.701Z,15.20
2023-03-27T08:31:49.392Z,13.87
2023-03-27T08:32:48.642Z,15.06
2023-03-27T08:33:48.896Z,13.99
2023-03-27T08:34:48.526Z,14.68
2023-03-27T08:35:48.491Z,14.83
2023-03-27T08:36:48.453Z,15.89
2023-03-27T08:37:48.462Z,16.90
2023-03-27T08:38:48.461Z,16.67
2023-03-27T08:39:48.537Z,16.27
2023-03-27T08:40:48.427Z,16.59
2023-03-27T08:41:48.462Z,16.49
2023-03-27T08:42:48.449Z,15.74
2023-03-27T08:43:48.493Z,15.42
2023-03-27T08:44:48.406Z,15.46
2023-03-27T08:45:48.452Z,14.68
2023-03-27T08:46:48.471Z,14.16
2023-03-27T08:47:48.403Z,13.14
2023-03-27T08:48:48.400Z,11.93
2023-03-27T08:49:48.422Z,12.59
2023-03-27T08:50:48.360Z,14.38
2023-03-27T08:51:48.366Z,15.20
2023-03-27T08:52:48.359Z,16.35
2023-03-27T08:53:48.358Z,16.37
2023-03-27T08:54:48.318Z,14.21
2023-03-27T08:55:48.392Z,12.95
2023-03-27T08:56:48.378Z,14.93
2023-03-27T08:57:48.361Z,14.46
2023-03-27T08:58:48.351Z,14.49
2023-03-27T08:59:48.359Z,16.11
2023-03-27T09:00:48.284Z,14.14
2023-03-27T09:01:48.314Z,13.76
2023-03-27T09:02:48.471Z,14.68
2023-03-27T09:03:48.354Z,16.11
2023-03-27T09:04:48.282Z,17.15
2023-03-27T09:05:48.285Z,17.17
2023-03-27T09:06:48.281Z,16.06
2023-03-27T09:07:48.271Z,14.19
2023-03-27T09:08:48.258Z,13.56
2023-03-27T09:09:48.265Z,14.95
2023-03-27T09:10:48.230Z,15.79
2023-03-27T09:11:48.233Z,15.20
2023-03-27T09:12:48.210Z,13.56
2023-03-27T09:13:48.286Z,12.78
2023-03-27T09:14:48.199Z,12.54
2023-03-27T09:15:48.311Z,11.82
2023-03-27T09:16:48.205Z,11.52
2023-03-27T09:17:48.208Z,11.24
2023-03-27T09:18:48.209Z,10.46
2023-03-27T09:19:48.208Z,10.65
2023-03-27T09:20:48.192Z,11.59
2023-03-27T09:21:48.294Z,11.77
2023-03-27T09:22:48.629Z,12.34
2023-03-27T09:23:48.144Z,13.88
2023-03-27T09:24:48.133Z,13.94
2023-03-27T09:25:48.145Z,12.85
2023-03-27T09:26:55.240Z,14.24
2023-03-27T09:27:50.101Z,14.84
2023-03-27T09:28:49.042Z,15.24
2023-03-27T09:29:48.096Z,15.86
2023-03-27T09:30:48.107Z,14.68
2023-03-27T09:31:48.123Z,13.83
2023-03-27T09:32:48.105Z,14.42
2023-03-27T09:33:48.062Z,15.93
2023-03-27T09:34:48.164Z,14.64
2023-03-27T09:35:48.080Z,13.55
2023-03-27T09:36:48.076Z,11.99
2023-03-27T09:37:48.060Z,11.28
2023-03-27T09:38:48.048Z,10.66
2023-03-27T09:39:48.065Z,10.14
2023-03-27T09:40:48.024Z,10.12
2023-03-27T09:43:58.573Z,9.61
2023-03-27T09:44:59.696Z,10.94
2023-03-27T09:45:59.725Z,10.77
2023-03-27T09:46:59.703Z,10.18
2023-03-27T09:47:59.778Z,10.14
2023-03-27T09:48:59.710Z,10.28
2023-03-27T09:49:59.628Z,10.34
2023-03-27T09:50:59.642Z,10.71
2023-03-27T09:51:59.657Z,11.07
2023-03-27T09:52:59.595Z,12.87
2023-03-27T09:53:59.651Z,14.34
2023-03-27T09:54:59.588Z,14.72
2023-03-27T09:56:01.065Z,14.93
2023-03-27T09:56:59.681Z,15.67
2023-03-27T09:58:00.550Z,17.29
2023-03-27T09:58:59.587Z,18.09
2023-03-27T09:59:59.635Z,15.38
2023-03-27T10:00:59.708Z,14.86
2023-03-27T10:01:59.534Z,13.52
2023-03-27T10:02:59.560Z,11.57
2023-03-27T10:03:59.681Z,10.43
2023-03-27T10:04:59.717Z,9.60
2023-03-27T10:05:59.504Z,9.06
2023-03-27T10:06:59.511Z,8.73
2023-03-27T10:07:59.487Z,8.66
2023-03-27T10:08:59.818Z,8.53
2023-03-27T10:09:59.622Z,9.04
2023-03-27T10:10:59.620Z,10.19
2023-03-27T10:11:59.485Z,11.62
2023-03-27T10:12:59.539Z,11.31
2023-03-27T10:13:59.447Z,11.16
2023-03-27T10:15:01.682Z,11.19
2023-03-27T10:15:59.455Z,10.62
2023-03-27T10:16:59.460Z,10.24
2023-03-27T10:17:59.593Z,10.03
2023-03-27T10:18:59.441Z,10.06
2023-03-27T10:19:59.444Z,11.52
2023-03-27T10:20:59.599Z,12.82
2023-03-27T10:21:59.551Z,14.43
2023-03-27T10:22:59.426Z,16.01
2023-03-27T10:23:59.422Z,17.15
2023-03-27T10:24:59.396Z,18.37
2023-03-27T10:25:59.401Z,18.29
2023-03-27T10:26:59.404Z,18.70
2023-03-27T10:27:59.406Z,18.37
2023-03-27T10:28:59.406Z,18.62
2023-03-27T10:29:59.370Z,18.33
2023-03-27T10:30:59.481Z,17.88
2023-03-27T10:31:59.426Z,18.04
2023-03-27T10:32:59.378Z,18.40
2023-03-27T10:33:59.352Z,17.50
2023-03-27T10:34:59.338Z,16.58
2023-03-27T10:35:59.393Z,15.48
2023-03-27T10:36:59.323Z,13.98
2023-03-27T10:37:59.300Z,12.06
2023-03-27T10:38:59.352Z,10.83
2023-03-27T10:39:59.306Z,10.34
2023-03-27T10:41:00.324Z,9.70
2023-03-27T10:41:59.344Z,9.46
2023-03-27T10:42:59.287Z,9.73
2023-03-27T10:43:59.320Z,11.86
2023-03-27T10:44:59.276Z,13.43
2023-03-27T10:45:59.319Z,14.93
2023-03-27T10:46:59.393Z,16.03
2023-03-27T10:47:59.297Z,16.60
2023-03-27T10:48:59.218Z,16.34
2023-03-27T10:49:59.233Z,16.71
2023-03-27T10:50:59.332Z,16.48
2023-03-27T10:51:59.251Z,16.25
2023-03-27T10:52:59.272Z,15.76
2023-03-27T10:53:59.326Z,15.38
2023-03-27T10:54:59.221Z,16.01
2023-03-27T10:55:59.226Z,15.51
2023-03-27T10:56:59.295Z,13.47
2023-03-27T10:57:59.920Z,12.13
2023-03-27T10:58:59.196Z,10.78
2023-03-27T10:59:59.165Z,9.89
2023-03-27T11:00:59.406Z,9.73
2023-03-27T11:01:59.250Z,9.71
2023-03-27T11:02:59.240Z,9.83
2023-03-27T11:03:59.191Z,10.53
2023-03-27T11:04:59.143Z,11.03
2023-03-27T11:05:59.177Z,13.00
2023-03-27T11:06:59.189Z,13.67
2023-03-27T11:07:59.119Z,13.88
2023-03-27T11:08:59.121Z,13.81
2023-03-27T11:09:59.115Z,14.65
2023-03-27T11:10:59.302Z,15.19
2023-03-27T11:11:59.117Z,14.94
2023-03-27T11:12:59.236Z,14.86
2023-03-27T11:13:59.163Z,14.69
2023-03-27T11:14:59.109Z,15.93
2023-03-27T11:15:59.120Z,15.27
2023-03-27T11:16:59.153Z,15.61
2023-03-27T11:17:59.155Z,15.02
2023-03-27T11:18:59.075Z,15.17
2023-03-27T11:19:59.062Z,16.07
2023-03-27T11:20:59.156Z,16.74
2023-03-27T11:21:59.105Z,16.52
2023-03-27T11:22:59.073Z,15.74
2023-03-27T11:23:59.025Z,15.93
2023-03-27T11:24:59.001Z,16.16
2023-03-27T11:25:59.042Z,16.25
2023-03-27T11:26:59.049Z,14.93
2023-03-27T11:27:59.085Z,15.02
2023-03-27T11:28:58.991Z,15.12
2023-03-27T11:29:59.014Z,15.28
2023-03-27T11:30:59.247Z,15.30
2023-03-27T11:32:00.059Z,16.03
2023-03-27T11:32:59.037Z,16.68
2023-03-27T11:33:58.965Z,16.75
2023-03-27T11:34:58.969Z,17.30
2023-03-27T11:35:59.017Z,17.11
2023-03-27T11:36:58.945Z,17.54
2023-03-27T11:37:59.031Z,16.73
2023-03-27T11:38:58.921Z,16.48
2023-03-27T11:39:58.905Z,15.92
2023-03-27T11:40:59.128Z,15.68
2023-03-27T11:41:58.949Z,16.03
2023-03-27T11:42:58.912Z,16.78
2023-03-27T11:43:58.909Z,15.63
2023-03-27T11:44:58.931Z,14.50
2023-03-27T11:45:58.885Z,14.21
2023-03-27T11:46:58.978Z,14.94
2023-03-27T11:47:58.953Z,13.54
2023-03-27T11:48:58.863Z,12.99
2023-03-27T11:49:58.884Z,12.09
2023-03-27T11:50:59.240Z,12.82
2023-03-27T11:51:58.831Z,12.39
2023-03-27T11:52:58.844Z,11.99
2023-03-27T11:53:58.839Z,13.84
2023-03-27T11:54:58.820Z,14.69
2023-03-27T11:55:58.842Z,13.91
2023-03-27T11:56:58.824Z,14.37
2023-03-27T11:57:58.867Z,15.89
2023-03-27T11:58:58.815Z,17.57
2023-03-27T11:59:58.874Z,18.00
2023-03-27T12:00:58.946Z,18.46
2023-03-27T12:01:59.519Z,17.82
2023-03-27T12:02:58.952Z,16.95
2023-03-27T12:03:58.813Z,17.36
2023-03-27T12:04:58.772Z,17.59
2023-03-27T12:05:58.839Z,15.67
2023-03-27T12:07:04.330Z,13.69
2023-03-27T12:08:00.776Z,12.71
2023-03-27T12:08:58.766Z,12.12
2023-03-27T12:09:58.711Z,11.70
2023-03-27T12:10:58.944Z,11.49
2023-03-27T12:11:58.725Z,11.32
2023-03-27T12:12:58.715Z,11.53
2023-03-27T12:14:02.035Z,11.49
2023-03-27T12:14:59.696Z,12.49
2023-03-27T12:15:58.710Z,13.56
2023-03-27T12:16:58.648Z,14.31
2023-03-27T12:17:58.733Z,14.43
2023-03-27T12:19:05.827Z,14.83
2023-03-27T12:20:00.654Z,14.56
2023-03-27T12:20:58.674Z,14.28
2023-03-27T12:21:58.671Z,14.50
2023-03-27T12:22:58.696Z,15.08
2023-03-27T12:23:58.771Z,14.74
2023-03-27T12:24:59.922Z,15.33
2023-03-27T12:25:59.716Z,16.22
2023-03-27T12:26:58.708Z,15.48
2023-03-27T12:27:58.607Z,15.97
2023-03-27T12:28:58.652Z,16.44
2023-03-27T12:29:58.626Z,16.40
2023-03-27T12:30:58.795Z,17.14
2023-03-27T12:31:58.596Z,17.44
2023-03-27T12:33:00.105Z,17.20
2023-03-27T12:33:58.579Z,17.63
2023-03-27T12:34:58.592Z,17.69
2023-03-27T12:35:58.634Z,16.73
2023-03-27T12:36:59.485Z,15.36
2023-03-27T12:37:58.524Z,14.34
2023-03-27T12:38:58.598Z,13.70
2023-03-27T12:39:58.619Z,13.44
2023-03-27T12:40:58.671Z,13.21
2023-03-27T12:41:58.512Z,12.96
2023-03-27T12:42:58.522Z,12.46
2023-03-27T12:43:58.506Z,12.30
2023-03-27T12:45:00.014Z,12.21
2023-03-27T12:45:59.834Z,12.04
2023-03-27T12:46:58.513Z,11.47
2023-03-27T12:47:58.482Z,11.11
2023-03-27T12:48:58.472Z,10.55
2023-03-27T12:49:58.531Z,9.70
2023-03-27T12:50:58.678Z,9.78
2023-03-27T12:51:58.436Z,10.07
2023-03-27T12:52:58.425Z,10.34
2023-03-27T12:53:58.407Z,10.71
2023-03-27T12:54:58.417Z,10.80
2023-03-27T12:55:58.547Z,11.24
2023-03-27T12:56:58.532Z,11.78
2023-03-27T12:57:58.499Z,11.70
2023-03-27T12:58:58.464Z,11.39
2023-03-27T12:59:59.485Z,11.11
2023-03-27T13:00:58.689Z,11.01
2023-03-27T13:01:58.432Z,11.32
2023-03-27T13:02:58.484Z,12.51
2023-03-27T13:03:58.501Z,14.20
2023-03-27T13:04:58.388Z,14.72
2023-03-27T13:05:58.339Z,15.75
2023-03-27T13:06:58.342Z,16.48
2023-03-27T13:07:58.371Z,16.67
2023-03-27T13:08:58.347Z,15.96
2023-03-27T13:09:58.347Z,15.06
2023-03-27T13:10:58.420Z,14.13